sensor_id;sensor_type;location;lat;lon;timestamp;pressure;altitude;pressure_sealevel;temperature;humidity
36932;BME280;22847;42.654;23.370;2023-11-19T00:01:26;94506.81;;;4.58;68.37
36932;BME280;22847;42.654;23.370;2023-11-19T00:03:51;94571.94;;;4.97;68.30
36932;BME280;22847;42.654;23.370;2023-11-19T00:08:53;94592.22;;;5.36;67.32
36932;BME280;22847;42.654;23.370;2023-11-19T00:13:50;94624.25;;;5.57;67.04
36932;BME280;22847;42.654;23.370;2023-11-19T00:16:16;94619.03;;;5.46;66.49
36932;BME280;22847;42.654;23.370;2023-11-19T00:18:42;94655.97;;;5.48;66.57
36932;BME280;22847;42.654;23.370;2023-11-19T00:21:07;94631.97;;;5.35;66.97
36932;BME280;22847;42.654;23.370;2023-11-19T00:23:34;94635.81;;;5.29;67.48
36932;BME280;22847;42.654;23.370;2023-11-19T00:26:00;94622.78;;;5.31;67.17
36932;BME280;22847;42.654;23.370;2023-11-19T00:28:25;94645.72;;;5.47;67.03
36932;BME280;22847;42.654;23.370;2023-11-19T00:30:51;94622.00;;;5.53;66.09
36932;BME280;22847;42.654;23.370;2023-11-19T00:33:16;94617.19;;;5.48;65.93
36932;BME280;22847;42.654;23.370;2023-11-19T00:35:42;94599.53;;;5.31;66.35
36932;BME280;22847;42.654;23.370;2023-11-19T00:43:23;94637.00;;;5.25;66.89
36932;BME280;22847;42.654;23.370;2023-11-19T00:45:51;94610.03;;;5.06;66.90
36932;BME280;22847;42.654;23.370;2023-11-19T00:48:17;94652.53;;;5.02;68.09
36932;BME280;22847;42.654;23.370;2023-11-19T00:50:42;94630.19;;;4.89;68.03
36932;BME280;22847;42.654;23.370;2023-11-19T00:53:09;94648.59;;;5.20;67.74
36932;BME280;22847;42.654;23.370;2023-11-19T00:55:35;94643.66;;;5.17;67.60
36932;BME280;22847;42.654;23.370;2023-11-19T00:58:00;94640.34;;;5.04;67.39
36932;BME280;22847;42.654;23.370;2023-11-19T01:00:26;94614.13;;;4.73;67.83
36932;BME280;22847;42.654;23.370;2023-11-19T01:02:52;94640.59;;;5.12;67.95
36932;BME280;22847;42.654;23.370;2023-11-19T01:05:18;94493.66;;;4.26;67.64
36932;BME280;22847;42.654;23.370;2023-11-19T01:07:47;94660.59;;;5.21;67.60
36932;BME280;22847;42.654;23.370;2023-11-19T01:10:13;94575.03;;;4.67;67.66
36932;BME280;22847;42.654;23.370;2023-11-19T01:12:38;94520.97;;;4.18;68.25
36932;BME280;22847;42.654;23.370;2023-11-19T01:15:05;94631.44;;;4.84;68.11
36932;BME280;22847;42.654;23.370;2023-11-19T01:17:31;94611.97;;;4.91;68.06
36932;BME280;22847;42.654;23.370;2023-11-19T01:19:57;94646.94;;;5.19;67.58
36932;BME280;22847;42.654;23.370;2023-11-19T01:22:22;94646.69;;;5.11;67.41
36932;BME280;22847;42.654;23.370;2023-11-19T01:24:48;94643.59;;;5.29;67.19
36932;BME280;22847;42.654;23.370;2023-11-19T01:27:14;94516.50;;;4.43;67.83
36932;BME280;22847;42.654;23.370;2023-11-19T01:29:39;94643.19;;;5.12;67.61
36932;BME280;22847;42.654;23.370;2023-11-19T01:32:05;94666.69;;;5.20;67.78
36932;BME280;22847;42.654;23.370;2023-11-19T01:34:30;94645.09;;;5.21;67.13
36932;BME280;22847;42.654;23.370;2023-11-19T01:36:56;94621.84;;;5.32;67.13
36932;BME280;22847;42.654;23.370;2023-11-19T01:39:21;94563.16;;;4.99;66.79
36932;BME280;22847;42.654;23.370;2023-11-19T01:41:47;94650.06;;;5.46;66.34
36932;BME280;22847;42.654;23.370;2023-11-19T01:44:13;94513.16;;;4.65;66.45
36932;BME280;22847;42.654;23.370;2023-11-19T01:46:41;94628.69;;;5.44;65.94
36932;BME280;22847;42.654;23.370;2023-11-19T01:49:07;94610.28;;;5.14;66.66
36932;BME280;22847;42.654;23.370;2023-11-19T01:51:34;94656.16;;;5.34;66.28
36932;BME280;22847;42.654;23.370;2023-11-19T01:54:00;94645.09;;;5.32;66.58
36932;BME280;22847;42.654;23.370;2023-11-19T01:56:27;94652.44;;;5.14;66.10
36932;BME280;22847;42.654;23.370;2023-11-19T01:58:54;94653.94;;;5.06;66.02
36932;BME280;22847;42.654;23.370;2023-11-19T02:01:20;94644.53;;;5.05;66.55
36932;BME280;22847;42.654;23.370;2023-11-19T02:03:46;94651.69;;;5.01;66.03
36932;BME280;22847;42.654;23.370;2023-11-19T02:06:12;94485.34;;;3.99;66.05
36932;BME280;22847;42.654;23.370;2023-11-19T02:08:39;94495.91;;;4.07;66.23
36932;BME280;22847;42.654;23.370;2023-11-19T02:11:05;94625.69;;;4.80;66.65
36932;BME280;22847;42.654;23.370;2023-11-19T02:13:32;94625.44;;;4.83;66.37
36932;BME280;22847;42.654;23.370;2023-11-19T02:15:58;94641.69;;;4.85;67.15
36932;BME280;22847;42.654;23.370;2023-11-19T02:18:26;94617.38;;;4.64;67.41
36932;BME280;22847;42.654;23.370;2023-11-19T02:20:59;94639.94;;;4.73;67.60
36932;BME280;22847;42.654;23.370;2023-11-19T02:23:26;94638.84;;;4.88;66.15
36932;BME280;22847;42.654;23.370;2023-11-19T02:28:31;94635.41;;;4.53;66.85
36932;BME280;22847;42.654;23.370;2023-11-19T02:30:58;94675.91;;;4.76;66.48
36932;BME280;22847;42.654;23.370;2023-11-19T02:33:24;94635.25;;;4.67;65.84
36932;BME280;22847;42.654;23.370;2023-11-19T02:35:50;94652.66;;;4.53;66.42
36932;BME280;22847;42.654;23.370;2023-11-19T02:38:16;94651.00;;;4.75;66.40
36932;BME280;22847;42.654;23.370;2023-11-19T02:40:42;94631.28;;;4.74;66.23
36932;BME280;22847;42.654;23.370;2023-11-19T02:43:07;94661.56;;;4.72;66.34
36932;BME280;22847;42.654;23.370;2023-11-19T02:45:33;94649.75;;;4.81;66.47
36932;BME280;22847;42.654;23.370;2023-11-19T02:47:59;94484.31;;;3.65;66.49
36932;BME280;22847;42.654;23.370;2023-11-19T02:50:27;94645.47;;;4.45;67.22
36932;BME280;22847;42.654;23.370;2023-11-19T02:52:55;94526.19;;;3.92;66.55
36932;BME280;22847;42.654;23.370;2023-11-19T02:55:24;94654.91;;;4.57;66.80
36932;BME280;22847;42.654;23.370;2023-11-19T02:57:50;94650.75;;;4.67;67.73
36932;BME280;22847;42.654;23.370;2023-11-19T03:00:22;94640.09;;;4.72;66.53
36932;BME280;22847;42.654;23.370;2023-11-19T03:03:03;94638.38;;;4.36;67.08
36932;BME280;22847;42.654;23.370;2023-11-19T03:05:49;94653.53;;;4.64;66.69
36932;BME280;22847;42.654;23.370;2023-11-19T03:08:17;94652.94;;;4.61;66.83
36932;BME280;22847;42.654;23.370;2023-11-19T03:10:43;94665.66;;;4.51;66.93
36932;BME280;22847;42.654;23.370;2023-11-19T03:13:12;94636.22;;;4.77;66.54
36932;BME280;22847;42.654;23.370;2023-11-19T03:15:40;94566.31;;;3.96;66.53
36932;BME280;22847;42.654;23.370;2023-11-19T03:18:05;94682.25;;;4.60;66.75
36932;BME280;22847;42.654;23.370;2023-11-19T03:20:30;94671.06;;;4.72;66.92
36932;BME280;22847;42.654;23.370;2023-11-19T03:22:56;94661.72;;;4.82;65.63
36932;BME280;22847;42.654;23.370;2023-11-19T03:25:25;94640.59;;;4.77;65.60
36932;BME280;22847;42.654;23.370;2023-11-19T03:27:52;94654.91;;;4.57;65.97
36932;BME280;22847;42.654;23.370;2023-11-19T03:30:18;94478.56;;;3.62;66.05
36932;BME280;22847;42.654;23.370;2023-11-19T03:32:46;94629.50;;;4.51;66.38
36932;BME280;22847;42.654;23.370;2023-11-19T03:35:11;94659.00;;;4.72;66.68
36932;BME280;22847;42.654;23.370;2023-11-19T03:37:37;94668.75;;;4.80;66.08
36932;BME280;22847;42.654;23.370;2023-11-19T03:40:03;94682.00;;;4.75;66.63
36932;BME280;22847;42.654;23.370;2023-11-19T03:42:29;94652.22;;;4.59;66.21
36932;BME280;22847;42.654;23.370;2023-11-19T03:44:57;94577.56;;;4.32;65.65
36932;BME280;22847;42.654;23.370;2023-11-19T03:47:23;94626.81;;;4.29;66.33
36932;BME280;22847;42.654;23.370;2023-11-19T03:49:49;94668.50;;;4.72;65.76
36932;BME280;22847;42.654;23.370;2023-11-19T03:52:15;94629.47;;;4.40;65.54
36932;BME280;22847;42.654;23.370;2023-11-19T03:54:41;94651.50;;;4.57;66.53
36932;BME280;22847;42.654;23.370;2023-11-19T03:57:06;94694.97;;;4.63;66.01
36932;BME280;22847;42.654;23.370;2023-11-19T03:59:32;94677.81;;;4.62;67.02
36932;BME280;22847;42.654;23.370;2023-11-19T04:01:58;94661.47;;;4.37;66.67
36932;BME280;22847;42.654;23.370;2023-11-19T04:04:26;94673.53;;;4.49;67.15
36932;BME280;22847;42.654;23.370;2023-11-19T04:06:52;94692.34;;;4.75;66.54
36932;BME280;22847;42.654;23.370;2023-11-19T04:09:17;94538.75;;;3.73;66.73
36932;BME280;22847;42.654;23.370;2023-11-19T04:11:43;94705.25;;;4.75;66.38
36932;BME280;22847;42.654;23.370;2023-11-19T04:14:08;94691.78;;;4.83;66.65
36932;BME280;22847;42.654;23.370;2023-11-19T04:16:35;94701.94;;;4.73;65.89
36932;BME280;22847;42.654;23.370;2023-11-19T04:19:00;94708.34;;;4.80;66.03
36932;BME280;22847;42.654;23.370;2023-11-19T04:21:26;94700.50;;;4.69;66.11
36932;BME280;22847;42.654;23.370;2023-11-19T04:23:52;94687.28;;;4.50;66.87
36932;BME280;22847;42.654;23.370;2023-11-19T04:26:17;94693.56;;;4.10;68.72
36932;BME280;22847;42.654;23.370;2023-11-19T04:28:43;94654.00;;;3.96;68.51
36932;BME280;22847;42.654;23.370;2023-11-19T04:31:08;94686.25;;;4.40;68.52
36932;BME280;22847;42.654;23.370;2023-11-19T04:33:34;94561.69;;;3.27;68.39
36932;BME280;22847;42.654;23.370;2023-11-19T04:36:00;94695.06;;;4.25;69.43
36932;BME280;22847;42.654;23.370;2023-11-19T04:38:25;94739.69;;;4.63;67.66
36932;BME280;22847;42.654;23.370;2023-11-19T04:40:52;94712.44;;;4.59;67.51
36932;BME280;22847;42.654;23.370;2023-11-19T04:43:17;94709.63;;;4.62;66.94
36932;BME280;22847;42.654;23.370;2023-11-19T04:45:43;94720.19;;;4.59;66.82
36932;BME280;22847;42.654;23.370;2023-11-19T04:48:09;94710.13;;;4.67;66.57
36932;BME280;22847;42.654;23.370;2023-11-19T04:50:34;94707.00;;;4.75;66.17
36932;BME280;22847;42.654;23.370;2023-11-19T04:52:59;94629.63;;;4.26;66.38
36932;BME280;22847;42.654;23.370;2023-11-19T04:55:25;94709.59;;;4.75;66.54
36932;BME280;22847;42.654;23.370;2023-11-19T04:57:50;94710.69;;;4.47;66.74
36932;BME280;22847;42.654;23.370;2023-11-19T05:00:19;94682.75;;;4.41;66.62
36932;BME280;22847;42.654;23.370;2023-11-19T05:02:44;94586.88;;;3.85;66.29
36932;BME280;22847;42.654;23.370;2023-11-19T05:05:10;94706.50;;;4.70;66.12
36932;BME280;22847;42.654;23.370;2023-11-19T05:07:35;94730.78;;;4.67;65.80
36932;BME280;22847;42.654;23.370;2023-11-19T05:10:01;94685.75;;;4.35;66.01
36932;BME280;22847;42.654;23.370;2023-11-19T05:12:26;94730.09;;;4.53;66.34
36932;BME280;22847;42.654;23.370;2023-11-19T05:14:52;94744.84;;;4.63;65.63
36932;BME280;22847;42.654;23.370;2023-11-19T05:17:17;94620.94;;;3.78;65.72
36932;BME280;22847;42.654;23.370;2023-11-19T05:19:43;94749.94;;;4.52;66.39
36932;BME280;22847;42.654;23.370;2023-11-19T05:22:09;94722.47;;;4.51;66.10
36932;BME280;22847;42.654;23.370;2023-11-19T05:24:34;94618.03;;;3.95;65.91
36932;BME280;22847;42.654;23.370;2023-11-19T05:27:01;94748.22;;;4.76;65.47
36932;BME280;22847;42.654;23.370;2023-11-19T05:29:27;94733.50;;;4.89;65.23
36932;BME280;22847;42.654;23.370;2023-11-19T05:31:52;94677.69;;;4.39;65.25
36932;BME280;22847;42.654;23.370;2023-11-19T05:34:20;94729.25;;;4.65;65.82
36932;BME280;22847;42.654;23.370;2023-11-19T05:36:46;94746.53;;;4.88;64.89
36932;BME280;22847;42.654;23.370;2023-11-19T05:39:11;94744.13;;;4.61;64.99
36932;BME280;22847;42.654;23.370;2023-11-19T05:41:37;94741.72;;;4.71;65.32
36932;BME280;22847;42.654;23.370;2023-11-19T05:44:02;94768.66;;;4.79;64.96
36932;BME280;22847;42.654;23.370;2023-11-19T05:46:28;94742.81;;;4.43;65.51
36932;BME280;22847;42.654;23.370;2023-11-19T05:48:53;94746.47;;;4.64;66.25
36932;BME280;22847;42.654;23.370;2023-11-19T05:51:19;94749.91;;;4.65;65.56
36932;BME280;22847;42.654;23.370;2023-11-19T05:53:45;94736.88;;;4.66;65.78
36932;BME280;22847;42.654;23.370;2023-11-19T05:56:15;94733.00;;;4.48;65.41
36932;BME280;22847;42.654;23.370;2023-11-19T05:58:46;94737.63;;;4.56;65.76
36932;BME280;22847;42.654;23.370;2023-11-19T06:01:13;94724.53;;;4.59;65.97
36932;BME280;22847;42.654;23.370;2023-11-19T06:03:38;94621.44;;;3.95;65.62
36932;BME280;22847;42.654;23.370;2023-11-19T06:06:04;94753.59;;;4.73;65.96
36932;BME280;22847;42.654;23.370;2023-11-19T06:08:30;94760.44;;;4.62;66.13
36932;BME280;22847;42.654;23.370;2023-11-19T06:10:56;94772.72;;;4.71;65.98
36932;BME280;22847;42.654;23.370;2023-11-19T06:13:22;94742.06;;;4.66;65.60
36932;BME280;22847;42.654;23.370;2023-11-19T06:15:47;94786.63;;;4.93;65.16
36932;BME280;22847;42.654;23.370;2023-11-19T06:18:13;94740.81;;;4.72;65.36
36932;BME280;22847;42.654;23.370;2023-11-19T06:20:40;94736.34;;;4.74;65.48
36932;BME280;22847;42.654;23.370;2023-11-19T06:23:06;94757.50;;;4.79;65.05
36932;BME280;22847;42.654;23.370;2023-11-19T06:25:32;94770.41;;;4.79;65.30
36932;BME280;22847;42.654;23.370;2023-11-19T06:27:58;94791.59;;;4.84;65.37
36932;BME280;22847;42.654;23.370;2023-11-19T06:30:24;94736.06;;;4.66;65.92
36932;BME280;22847;42.654;23.370;2023-11-19T06:32:49;94763.00;;;4.74;66.10
36932;BME280;22847;42.654;23.370;2023-11-19T06:35:15;94765.25;;;4.79;65.44
36932;BME280;22847;42.654;23.370;2023-11-19T06:37:40;94755.28;;;4.98;76.33
36932;BME280;22847;42.654;23.370;2023-11-19T06:40:07;94775.84;;;5.00;65.83
36932;BME280;22847;42.654;23.370;2023-11-19T06:42:34;94764.56;;;4.77;65.87
36932;BME280;22847;42.654;23.370;2023-11-19T06:45:00;94761.34;;;4.73;65.85
36932;BME280;22847;42.654;23.370;2023-11-19T06:47:29;94758.47;;;4.65;66.63
36932;BME280;22847;42.654;23.370;2023-11-19T06:49:55;94649.97;;;4.18;65.97
36932;BME280;22847;42.654;23.370;2023-11-19T06:52:20;94756.06;;;4.75;65.12
36932;BME280;22847;42.654;23.370;2023-11-19T06:54:46;94754.75;;;4.69;65.04
36932;BME280;22847;42.654;23.370;2023-11-19T06:57:12;94765.75;;;4.47;66.84
36932;BME280;22847;42.654;23.370;2023-11-19T06:59:38;94784.44;;;4.38;66.19
36932;BME280;22847;42.654;23.370;2023-11-19T07:02:04;94766.06;;;4.30;66.30
36932;BME280;22847;42.654;23.370;2023-11-19T07:04:30;94811.81;;;4.54;65.85
36932;BME280;22847;42.654;23.370;2023-11-19T07:06:55;94785.06;;;4.55;66.14
36932;BME280;22847;42.654;23.370;2023-11-19T07:09:21;94617.66;;;3.63;65.63
36932;BME280;22847;42.654;23.370;2023-11-19T07:11:48;94652.00;;;3.64;65.45
36932;BME280;22847;42.654;23.370;2023-11-19T07:14:17;94808.47;;;4.52;65.26
36932;BME280;22847;42.654;23.370;2023-11-19T07:16:43;94777.63;;;4.50;64.85
36932;BME280;22847;42.654;23.370;2023-11-19T07:19:09;94798.75;;;4.55;65.86
36932;BME280;22847;42.654;23.370;2023-11-19T07:21:35;94679.00;;;3.96;67.67
36932;BME280;22847;42.654;23.370;2023-11-19T07:24:05;94807.00;;;4.73;64.95
36932;BME280;22847;42.654;23.370;2023-11-19T07:26:30;94667.13;;;3.93;64.75
36932;BME280;22847;42.654;23.370;2023-11-19T07:28:56;94800.41;;;4.81;64.14
36932;BME280;22847;42.654;23.370;2023-11-19T07:31:22;94818.63;;;4.91;65.89
36932;BME280;22847;42.654;23.370;2023-11-19T07:33:49;94830.59;;;5.05;64.76
36932;BME280;22847;42.654;23.370;2023-11-19T07:36:14;94833.75;;;4.84;65.36
36932;BME280;22847;42.654;23.370;2023-11-19T07:38:40;94838.59;;;4.89;65.68
36932;BME280;22847;42.654;23.370;2023-11-19T07:41:05;94815.56;;;4.86;63.20
36932;BME280;22847;42.654;23.370;2023-11-19T07:43:32;94701.69;;;4.16;63.44
36932;BME280;22847;42.654;23.370;2023-11-19T07:45:58;94863.50;;;4.90;63.29
36932;BME280;22847;42.654;23.370;2023-11-19T07:48:25;94838.00;;;4.60;63.57
36932;BME280;22847;42.654;23.370;2023-11-19T07:50:52;94838.25;;;5.06;62.94
36932;BME280;22847;42.654;23.370;2023-11-19T07:53:18;94696.53;;;4.03;62.83
36932;BME280;22847;42.654;23.370;2023-11-19T07:55:45;94799.91;;;4.64;63.27
36932;BME280;22847;42.654;23.370;2023-11-19T07:58:11;94836.56;;;4.69;63.68
36932;BME280;22847;42.654;23.370;2023-11-19T08:00:37;94839.44;;;4.89;63.47
36932;BME280;22847;42.654;23.370;2023-11-19T08:03:04;94774.53;;;4.45;62.84
36932;BME280;22847;42.654;23.370;2023-11-19T08:05:30;94856.66;;;5.02;62.49
36932;BME280;22847;42.654;23.370;2023-11-19T08:07:56;94829.19;;;4.88;62.87
36932;BME280;22847;42.654;23.370;2023-11-19T08:10:22;94811.88;;;4.65;62.55
36932;BME280;22847;42.654;23.370;2023-11-19T08:12:48;94856.44;;;5.05;62.33
36932;BME280;22847;42.654;23.370;2023-11-19T08:15:14;94718.38;;;4.11;61.98
36932;BME280;22847;42.654;23.370;2023-11-19T08:17:40;94861.34;;;4.84;62.61
36932;BME280;22847;42.654;23.370;2023-11-19T08:20:06;94873.00;;;5.02;62.91
36932;BME280;22847;42.654;23.370;2023-11-19T08:22:36;94829.25;;;4.63;62.59
36932;BME280;22847;42.654;23.370;2023-11-19T08:25:04;94847.47;;;4.98;63.18
36932;BME280;22847;42.654;23.370;2023-11-19T08:27:29;94861.91;;;5.49;61.99
36932;BME280;22847;42.654;23.370;2023-11-19T08:30:14;94846.16;;;5.76;61.84
36932;BME280;22847;42.654;23.370;2023-11-19T08:32:39;94837.75;;;6.20;61.87
36932;BME280;22847;42.654;23.370;2023-11-19T08:35:05;94856.44;;;6.69;58.72
36932;BME280;22847;42.654;23.370;2023-11-19T08:37:30;94842.91;;;6.88;57.50
36932;BME280;22847;42.654;23.370;2023-11-19T08:39:56;94752.91;;;6.68;56.62
36932;BME280;22847;42.654;23.370;2023-11-19T08:42:23;94867.59;;;7.37;55.77
36932;BME280;22847;42.654;23.370;2023-11-19T08:44:49;94671.78;;;6.45;54.33
36932;BME280;22847;42.654;23.370;2023-11-19T08:47:16;94873.06;;;7.66;53.99
36932;BME280;22847;42.654;23.370;2023-11-19T08:49:45;94866.25;;;7.65;53.85
36932;BME280;22847;42.654;23.370;2023-11-19T08:52:10;94866.78;;;7.79;52.69
36932;BME280;22847;42.654;23.370;2023-11-19T08:54:36;94761.06;;;7.17;53.65
36932;BME280;22847;42.654;23.370;2023-11-19T08:57:03;94869.63;;;7.33;53.05
36932;BME280;22847;42.654;23.370;2023-11-19T08:59:29;94866.09;;;7.01;54.20
36932;BME280;22847;42.654;23.370;2023-11-19T09:01:54;94880.72;;;7.02;54.71
36932;BME280;22847;42.654;23.370;2023-11-19T09:04:20;94869.50;;;6.90;55.86
36932;BME280;22847;42.654;23.370;2023-11-19T09:06:48;94850.41;;;6.69;56.07
36932;BME280;22847;42.654;23.370;2023-11-19T09:09:13;94857.00;;;6.51;55.44
36932;BME280;22847;42.654;23.370;2023-11-19T09:11:39;94842.94;;;6.20;56.38
36932;BME280;22847;42.654;23.370;2023-11-19T09:14:05;94842.25;;;6.29;57.51
36932;BME280;22847;42.654;23.370;2023-11-19T09:16:30;94862.53;;;6.57;56.65
36932;BME280;22847;42.654;23.370;2023-11-19T09:18:56;94824.41;;;6.93;57.75
36932;BME280;22847;42.654;23.370;2023-11-19T09:21:23;94726.69;;;6.39;55.76
36932;BME280;22847;42.654;23.370;2023-11-19T09:23:48;94854.78;;;7.02;56.58
36932;BME280;22847;42.654;23.370;2023-11-19T09:26:14;94844.41;;;6.91;57.14
36932;BME280;22847;42.654;23.370;2023-11-19T09:28:40;94737.59;;;5.98;55.15
36932;BME280;22847;42.654;23.370;2023-11-19T09:31:18;94865.59;;;6.62;56.89
36932;BME280;22847;42.654;23.370;2023-11-19T09:33:44;94859.69;;;6.49;56.85
36932;BME280;22847;42.654;23.370;2023-11-19T09:36:12;94704.00;;;5.85;56.59
36932;BME280;22847;42.654;23.370;2023-11-19T09:38:42;94842.63;;;6.58;58.29
36932;BME280;22847;42.654;23.370;2023-11-19T09:41:09;94833.34;;;6.55;57.53
36932;BME280;22847;42.654;23.370;2023-11-19T09:43:37;94813.19;;;6.48;57.92
36932;BME280;22847;42.654;23.370;2023-11-19T09:46:06;94710.66;;;6.12;56.04
36932;BME280;22847;42.654;23.370;2023-11-19T09:48:36;94850.53;;;7.01;56.20
36932;BME280;22847;42.654;23.370;2023-11-19T09:51:08;94794.91;;;7.05;57.12
36932;BME280;22847;42.654;23.370;2023-11-19T09:53:35;94769.25;;;6.91;54.68
36932;BME280;22847;42.654;23.370;2023-11-19T09:56:02;94805.19;;;7.06;55.36
36932;BME280;22847;42.654;23.370;2023-11-19T09:58:29;94729.13;;;7.17;56.21
36932;BME280;22847;42.654;23.370;2023-11-19T10:00:55;94791.19;;;7.93;54.53
36932;BME280;22847;42.654;23.370;2023-11-19T10:03:22;94784.63;;;8.10;53.54
36932;BME280;22847;42.654;23.370;2023-11-19T10:05:48;94801.56;;;8.46;53.01
36932;BME280;22847;42.654;23.370;2023-11-19T10:08:14;94793.56;;;8.38;52.79
36932;BME280;22847;42.654;23.370;2023-11-19T10:10:39;94805.06;;;8.66;54.46
36932;BME280;22847;42.654;23.370;2023-11-19T10:13:05;94774.16;;;8.63;54.61
36932;BME280;22847;42.654;23.370;2023-11-19T10:15:36;94776.84;;;8.82;51.30
36932;BME280;22847;42.654;23.370;2023-11-19T10:18:02;94743.88;;;8.52;52.21
36932;BME280;22847;42.654;23.370;2023-11-19T10:20:40;94755.03;;;8.43;53.76
36932;BME280;22847;42.654;23.370;2023-11-19T10:23:10;94793.03;;;8.65;51.75
36932;BME280;22847;42.654;23.370;2023-11-19T10:25:36;94801.09;;;8.62;53.29
36932;BME280;22847;42.654;23.370;2023-11-19T10:28:02;94830.81;;;8.69;50.23
36932;BME280;22847;42.654;23.370;2023-11-19T10:30:29;94803.69;;;8.62;49.30
36932;BME280;22847;42.654;23.370;2023-11-19T10:35:51;94770.38;;;8.25;51.24
36932;BME280;22847;42.654;23.370;2023-11-19T10:38:19;94772.78;;;8.38;51.20
36932;BME280;22847;42.654;23.370;2023-11-19T10:40:46;94753.09;;;8.35;50.52
36932;BME280;22847;42.654;23.370;2023-11-19T10:43:12;94719.19;;;8.16;51.25
36932;BME280;22847;42.654;23.370;2023-11-19T10:45:38;94770.00;;;8.50;50.79
36932;BME280;22847;42.654;23.370;2023-11-19T10:48:05;94712.03;;;8.08;50.01
36932;BME280;22847;42.654;23.370;2023-11-19T10:50:34;94697.63;;;7.95;50.68
36932;BME280;22847;42.654;23.370;2023-11-19T10:53:02;94784.97;;;8.68;50.75
36932;BME280;22847;42.654;23.370;2023-11-19T10:55:33;94661.59;;;7.81;49.54
36932;BME280;22847;42.654;23.370;2023-11-19T10:58:07;94621.56;;;7.74;49.80
36932;BME280;22847;42.654;23.370;2023-11-19T11:00:48;94755.06;;;8.73;49.64
36932;BME280;22847;42.654;23.370;2023-11-19T11:03:18;94763.66;;;8.74;49.77
36932;BME280;22847;42.654;23.370;2023-11-19T11:05:48;94772.81;;;9.08;49.02
36932;BME280;22847;42.654;23.370;2023-11-19T11:08:14;94740.72;;;8.88;50.96
36932;BME280;22847;42.654;23.370;2023-11-19T11:10:43;94773.94;;;9.25;53.55
36932;BME280;22847;42.654;23.370;2023-11-19T11:13:10;94725.44;;;9.14;51.23
36932;BME280;22847;42.654;23.370;2023-11-19T11:15:37;94750.00;;;9.50;52.72
36932;BME280;22847;42.654;23.370;2023-11-19T11:18:03;94781.09;;;9.52;52.63
36932;BME280;22847;42.654;23.370;2023-11-19T11:20:32;94714.22;;;9.23;48.12
36932;BME280;22847;42.654;23.370;2023-11-19T11:26:44;94760.25;;;9.32;48.26
36932;BME280;22847;42.654;23.370;2023-11-19T11:29:27;94759.31;;;9.43;50.09
36932;BME280;22847;42.654;23.370;2023-11-19T11:39:42;94719.41;;;9.04;50.61
36932;BME280;22847;42.654;23.370;2023-11-19T11:50:24;94719.84;;;9.28;50.37
36932;BME280;22847;42.654;23.370;2023-11-19T11:55:25;94686.59;;;9.32;49.19
36932;BME280;22847;42.654;23.370;2023-11-19T11:57:50;94718.22;;;9.37;52.52
36932;BME280;22847;42.654;23.370;2023-11-19T12:00:42;94730.66;;;9.33;48.06
36932;BME280;22847;42.654;23.370;2023-11-19T12:03:09;94701.38;;;9.31;47.61
36932;BME280;22847;42.654;23.370;2023-11-19T12:05:42;94704.66;;;9.43;50.75
36932;BME280;22847;42.654;23.370;2023-11-19T12:08:10;94721.25;;;9.71;49.64
36932;BME280;22847;42.654;23.370;2023-11-19T12:10:47;94678.63;;;9.53;46.67
36932;BME280;22847;42.654;23.370;2023-11-19T12:13:14;94588.56;;;8.94;47.24
36932;BME280;22847;42.654;23.370;2023-11-19T12:20:48;94553.91;;;8.74;49.43
36932;BME280;22847;42.654;23.370;2023-11-19T12:23:14;94694.53;;;9.50;51.69
36932;BME280;22847;42.654;23.370;2023-11-19T12:25:40;94672.47;;;9.34;51.62
36932;BME280;22847;42.654;23.370;2023-11-19T12:28:12;94694.38;;;9.22;48.70
36932;BME280;22847;42.654;23.370;2023-11-19T12:30:38;94695.06;;;9.44;51.58
36932;BME280;22847;42.654;23.370;2023-11-19T12:33:11;94695.63;;;9.76;51.98
36932;BME280;22847;42.654;23.370;2023-11-19T12:35:47;94686.25;;;9.93;50.17
36932;BME280;22847;42.654;23.370;2023-11-19T12:38:23;94702.53;;;10.04;51.85
36932;BME280;22847;42.654;23.370;2023-11-19T12:41:06;94536.25;;;8.97;51.96
36932;BME280;22847;42.654;23.370;2023-11-19T12:43:32;94670.94;;;9.80;51.28
36932;BME280;22847;42.654;23.370;2023-11-19T12:46:21;94669.38;;;9.97;53.28
36932;BME280;22847;42.654;23.370;2023-11-19T12:48:50;94535.97;;;9.19;53.13
36932;BME280;22847;42.654;23.370;2023-11-19T12:51:16;94683.50;;;10.04;49.72
36932;BME280;22847;42.654;23.370;2023-11-19T12:53:50;94624.69;;;10.01;51.67
36932;BME280;22847;42.654;23.370;2023-11-19T12:56:16;94653.84;;;10.24;53.05
36932;BME280;22847;42.654;23.370;2023-11-19T12:58:42;94660.84;;;10.04;47.54
36932;BME280;22847;42.654;23.370;2023-11-19T13:01:09;94503.69;;;9.03;49.00
36932;BME280;22847;42.654;23.370;2023-11-19T13:03:38;94433.28;;;8.38;49.20
36932;BME280;22847;42.654;23.370;2023-11-19T13:06:04;94649.75;;;10.12;47.55
36932;BME280;22847;42.654;23.370;2023-11-19T13:11:06;94656.66;;;9.94;49.27
36932;BME280;22847;42.654;23.370;2023-11-19T13:13:56;94663.75;;;10.01;48.35
36932;BME280;22847;42.654;23.370;2023-11-19T13:16:22;94566.63;;;9.35;49.62
36932;BME280;22847;42.654;23.370;2023-11-19T13:18:48;94654.78;;;9.67;49.79
36932;BME280;22847;42.654;23.370;2023-11-19T13:21:13;94574.00;;;9.49;51.38
36932;BME280;22847;42.654;23.370;2023-11-19T13:23:39;94569.09;;;9.36;49.07
36932;BME280;22847;42.654;23.370;2023-11-19T13:26:05;94629.06;;;9.54;49.96
36932;BME280;22847;42.654;23.370;2023-11-19T13:28:31;94472.09;;;8.78;49.00
36932;BME280;22847;42.654;23.370;2023-11-19T13:30:56;94628.53;;;9.97;48.40
36932;BME280;22847;42.654;23.370;2023-11-19T13:33:21;94618.84;;;9.80;48.05
36932;BME280;22847;42.654;23.370;2023-11-19T13:35:47;94493.59;;;8.90;49.58
36932;BME280;22847;42.654;23.370;2023-11-19T13:38:12;94646.66;;;9.89;48.26
36932;BME280;22847;42.654;23.370;2023-11-19T13:40:38;94604.09;;;9.61;47.57
36932;BME280;22847;42.654;23.370;2023-11-19T13:43:04;94643.41;;;9.68;49.50
36932;BME280;22847;42.654;23.370;2023-11-19T13:45:30;94642.19;;;9.62;49.02